createdAt,value
2022-11-03T00:00:49.311Z,101152.38
2022-11-03T00:03:34.339Z,101140.88
2022-11-03T00:06:19.267Z,101140.88
2022-11-03T00:09:07.014Z,101135.13
2022-11-03T00:11:52.000Z,101134.44
2022-11-03T00:14:37.122Z,101127.78
2022-11-03T00:17:21.929Z,101115.59
2022-11-03T00:20:07.917Z,101124.63
2022-11-03T00:22:52.679Z,101117.34
2022-11-03T00:25:37.809Z,101115.78
2022-11-03T00:28:22.774Z,101108.44
2022-11-03T00:31:10.840Z,101112.06
2022-11-03T00:33:56.348Z,101110.94
2022-11-03T00:36:43.490Z,101108.88
2022-11-03T00:39:28.313Z,101100.53
2022-11-03T00:42:13.416Z,101106.66
2022-11-03T00:44:58.454Z,101094.81
2022-11-03T00:48:03.558Z,101098.16
2022-11-03T00:50:48.463Z,101095.69
2022-11-03T00:53:38.659Z,101085.94
2022-11-03T00:56:26.356Z,101084.53
2022-11-03T00:59:11.564Z,101088.03
2022-11-03T01:01:56.888Z,101086.34
2022-11-03T01:05:00.570Z,101087.34
2022-11-03T01:07:45.723Z,101075.50
2022-11-03T01:10:30.385Z,101076.75
2022-11-03T01:13:15.227Z,101075.50
2022-11-03T01:16:00.341Z,101074.94
2022-11-03T01:18:45.586Z,101069.75
2022-11-03T01:21:30.979Z,101067.84
2022-11-03T01:24:16.113Z,101065.19
2022-11-03T01:27:01.057Z,101060.59
2022-11-03T01:29:45.977Z,101056.56
2022-11-03T01:32:30.731Z,101057.22
2022-11-03T01:35:15.609Z,101046.09
2022-11-03T01:38:00.785Z,101046.09
2022-11-03T01:40:45.932Z,101035.38
2022-11-03T01:43:32.281Z,101034.97
2022-11-03T01:46:25.916Z,101038.00
2022-11-03T01:49:19.915Z,101032.88
2022-11-03T01:52:20.765Z,101024.66
2022-11-03T01:55:16.186Z,101024.16
2022-11-03T01:58:13.782Z,101021.63
2022-11-03T02:01:00.531Z,101015.22
2022-11-03T02:03:51.304Z,101006.59
2022-11-03T02:06:37.007Z,101006.75
2022-11-03T02:09:22.290Z,100994.50
2022-11-03T02:12:08.740Z,100992.56
2022-11-03T02:14:58.269Z,100992.00
2022-11-03T02:17:46.497Z,100998.41
2022-11-03T02:20:32.859Z,100992.88
2022-11-03T02:23:30.198Z,100980.50
2022-11-03T02:26:15.690Z,100989.84
2022-11-03T02:29:00.890Z,100980.78
2022-11-03T02:31:58.704Z,100978.44
2022-11-03T02:35:17.406Z,100982.59
2022-11-03T02:38:08.907Z,100972.19
2022-11-03T02:40:57.029Z,100965.66
2022-11-03T02:43:42.995Z,100955.44
2022-11-03T02:46:30.790Z,100951.66
2022-11-03T02:49:15.833Z,100945.25
2022-11-03T02:52:02.397Z,100940.91
2022-11-03T02:54:47.881Z,100942.72
2022-11-03T02:57:39.359Z,100927.56
2022-11-03T03:00:24.679Z,100923.94
2022-11-03T03:03:32.380Z,100918.25
2022-11-03T03:06:33.961Z,100915.91
2022-11-03T03:09:25.614Z,100914.47
2022-11-03T03:12:13.860Z,100911.84
2022-11-03T03:15:01.106Z,100908.34
2022-11-03T03:18:05.312Z,100903.47
2022-11-03T03:20:56.469Z,100896.25
2022-11-03T03:23:50.432Z,100894.53
2022-11-03T03:26:40.984Z,100896.63
2022-11-03T03:29:36.567Z,100892.47
2022-11-03T03:32:25.778Z,100891.47
2022-11-03T03:35:17.066Z,100888.16
2022-11-03T03:38:08.770Z,100876.22
2022-11-03T03:40:57.258Z,100892.66
2022-11-03T03:43:42.262Z,100892.41
2022-11-03T03:46:32.131Z,100888.81
2022-11-03T03:49:17.312Z,100891.13
2022-11-03T03:52:03.646Z,100881.28
2022-11-03T03:54:48.709Z,100872.03
2022-11-03T03:57:33.946Z,100864.06
2022-11-03T04:00:19.312Z,100867.00
2022-11-03T04:03:04.264Z,100863.78
2022-11-03T04:05:50.068Z,100868.50
2022-11-03T04:08:35.472Z,100858.69
2022-11-03T04:11:39.150Z,100849.91
2022-11-03T04:14:42.846Z,100852.84
2022-11-03T04:17:49.274Z,100845.34
2022-11-03T04:20:52.946Z,100837.44
2022-11-03T04:23:38.664Z,100838.50
2022-11-03T04:26:23.684Z,100836.19
2022-11-03T04:29:09.774Z,100834.59
2022-11-03T04:31:54.877Z,100835.44
2022-11-03T04:34:41.018Z,100826.69
2022-11-03T04:37:28.731Z,100829.88
2022-11-03T04:40:16.355Z,100822.75
2022-11-03T04:43:04.663Z,100816.59
2022-11-03T04:45:49.925Z,100817.25
2022-11-03T04:48:35.222Z,100812.25
2022-11-03T04:51:24.340Z,100812.59
2022-11-03T04:54:23.390Z,100814.09
2022-11-03T04:57:12.845Z,100795.06
2022-11-03T04:59:57.757Z,100794.97
2022-11-03T05:02:44.652Z,100800.69
2022-11-03T05:05:29.569Z,100794.19
2022-11-03T05:08:17.245Z,100796.84
2022-11-03T05:11:13.611Z,100786.88
2022-11-03T05:14:02.217Z,100784.69
2022-11-03T05:16:48.403Z,100780.91
2022-11-03T05:19:38.316Z,100783.66
2022-11-03T05:22:26.518Z,100769.22
2022-11-03T05:25:42.034Z,100768.09
2022-11-03T05:28:30.252Z,100757.13
2022-11-03T05:31:22.419Z,100746.53
2022-11-03T05:34:30.020Z,100742.78
2022-11-03T05:37:30.734Z,100739.25
2022-11-03T05:40:24.734Z,100739.25
2022-11-03T05:43:14.400Z,100738.72
2022-11-03T05:46:02.779Z,100739.47
2022-11-03T05:48:49.329Z,100731.69
2022-11-03T05:51:37.818Z,100727.00
2022-11-03T05:54:27.250Z,100730.22
2022-11-03T05:57:14.854Z,100738.16
2022-11-03T06:00:00.070Z,100742.00
2022-11-03T06:02:46.344Z,100735.56
2022-11-03T06:05:32.237Z,100724.94
2022-11-03T06:11:25.754Z,100729.13
2022-11-03T06:14:25.143Z,100715.41
2022-11-03T06:17:23.769Z,100701.78
2022-11-03T06:20:18.216Z,100698.47
2022-11-03T06:23:03.805Z,100690.47
2022-11-03T06:25:51.200Z,100684.38
2022-11-03T06:28:39.007Z,100688.03
2022-11-03T06:31:28.515Z,100682.44
2022-11-03T06:34:22.008Z,100667.34
2022-11-03T06:37:20.015Z,100650.81
2022-11-03T06:40:33.483Z,100640.84
2022-11-03T06:43:25.426Z,100653.44
2022-11-03T06:46:24.336Z,100646.47
2022-11-03T06:49:28.601Z,100636.06
2022-11-03T06:52:23.879Z,100634.41
2022-11-03T06:55:13.724Z,100639.69
2022-11-03T06:58:32.460Z,100633.22
2022-11-03T07:01:32.338Z,100618.84
2022-11-03T07:04:29.742Z,100618.97
2022-11-03T07:07:14.555Z,100624.06
2022-11-03T07:09:59.590Z,100621.44
2022-11-03T07:12:45.299Z,100622.75
2022-11-03T07:15:33.230Z,100621.28
2022-11-03T07:18:29.600Z,100624.81
2022-11-03T07:21:42.438Z,100606.13
2022-11-03T07:24:30.782Z,100601.50
2022-11-03T07:27:35.964Z,100597.97
2022-11-03T07:30:24.029Z,100592.13
2022-11-03T07:33:15.121Z,100589.28
2022-11-03T07:36:16.855Z,100585.97
2022-11-03T07:39:02.895Z,100584.09
2022-11-03T07:41:48.925Z,100591.41
2022-11-03T07:44:34.404Z,100582.38
2022-11-03T07:47:21.849Z,100583.16
2022-11-03T07:50:14.641Z,100575.97
2022-11-03T07:52:59.705Z,100577.47
2022-11-03T07:55:46.838Z,100565.81
2022-11-03T07:58:39.612Z,100572.97
2022-11-03T08:01:25.946Z,100568.31
2022-11-03T08:04:20.207Z,100568.97
2022-11-03T08:07:05.075Z,100566.28
2022-11-03T08:09:51.266Z,100568.59
2022-11-03T08:12:36.785Z,100574.75
2022-11-03T08:15:21.878Z,100573.88
2022-11-03T08:18:06.987Z,100571.03
2022-11-03T08:20:52.046Z,100565.91
2022-11-03T08:23:37.781Z,100554.09
2022-11-03T08:26:22.763Z,100576.81
2022-11-03T08:29:07.873Z,100559.34
2022-11-03T08:31:54.090Z,100562.31
2022-11-03T08:34:38.977Z,100553.97
2022-11-03T08:37:23.954Z,100551.09
2022-11-03T08:40:09.573Z,100544.75
2022-11-03T08:42:54.481Z,100535.88
2022-11-03T08:45:39.345Z,100538.03
2022-11-03T08:48:28.955Z,100526.66
2022-11-03T08:51:15.717Z,100518.84
2022-11-03T08:54:00.433Z,100505.28
2022-11-03T08:56:46.423Z,100514.72
2022-11-03T08:59:31.626Z,100505.69
2022-11-03T09:02:16.694Z,100506.69
2022-11-03T09:05:01.660Z,100514.22
2022-11-03T09:10:51.509Z,100500.75
2022-11-03T09:13:36.610Z,100485.78
2022-11-03T09:16:21.280Z,100491.78
2022-11-03T09:19:06.334Z,100474.63
2022-11-03T09:21:52.237Z,100459.50
2022-11-03T09:24:37.238Z,100458.69
2022-11-03T09:27:22.107Z,100446.88
2022-11-03T09:30:13.242Z,100436.81
2022-11-03T09:32:58.792Z,100425.44
2022-11-03T09:35:43.768Z,100420.19
2022-11-03T09:38:28.570Z,100414.88
2022-11-03T09:41:26.499Z,100414.63
2022-11-03T09:44:20.875Z,100402.97
2022-11-03T09:47:06.618Z,100393.84
2022-11-03T09:49:52.255Z,100381.31
2022-11-03T09:52:37.676Z,100377.28
2022-11-03T09:55:27.020Z,100361.22
2022-11-03T09:58:17.269Z,100354.28
2022-11-03T10:01:03.397Z,100346.66
2022-11-03T10:03:48.377Z,100345.34
2022-11-03T10:06:33.481Z,100344.63
2022-11-03T10:09:20.594Z,100357.38
2022-11-03T10:12:09.193Z,100357.00
2022-11-03T10:14:54.863Z,100351.63
2022-11-03T10:17:40.062Z,100349.84
2022-11-03T10:20:25.186Z,100351.06
2022-11-03T10:23:10.492Z,100339.22
2022-11-03T10:26:08.394Z,100328.03
2022-11-03T10:29:03.452Z,100319.91
2022-11-03T10:31:51.479Z,100299.00
2022-11-03T10:34:39.281Z,100299.44
2022-11-03T10:37:26.081Z,100293.31
2022-11-03T10:40:47.652Z,100292.13
2022-11-03T10:43:33.446Z,100281.59
2022-11-03T10:46:44.708Z,100271.59
2022-11-03T10:49:30.202Z,100263.78
2022-11-03T10:52:23.806Z,100248.84
2022-11-03T10:55:08.985Z,100216.50
2022-11-03T10:57:58.119Z,100220.81
2022-11-03T11:00:42.982Z,100229.41
2022-11-03T11:03:27.840Z,100228.53
2022-11-03T11:06:21.379Z,100231.44
2022-11-03T11:09:09.857Z,100243.72
2022-11-03T11:12:06.137Z,100261.75
2022-11-03T11:14:57.489Z,100250.78
2022-11-03T11:17:45.415Z,100232.63
2022-11-03T11:20:34.422Z,100224.56
2022-11-03T11:23:28.885Z,100226.50
2022-11-03T11:26:30.724Z,100228.16
2022-11-03T11:29:15.704Z,100212.00
2022-11-03T11:32:50.384Z,100205.25
2022-11-03T11:35:59.028Z,100208.09
2022-11-03T11:38:48.276Z,100224.03
2022-11-03T11:42:11.635Z,100223.47
2022-11-03T11:44:58.132Z,100205.97
2022-11-03T11:47:48.312Z,100202.59
2022-11-03T11:50:33.338Z,100175.63
2022-11-03T11:53:25.074Z,100158.78
2022-11-03T11:56:18.932Z,100160.91
2022-11-03T11:59:03.785Z,100154.97
2022-11-03T12:01:51.822Z,100149.66
2022-11-03T12:04:36.550Z,100123.06
2022-11-03T12:07:35.903Z,100120.06
2022-11-03T12:10:28.070Z,100120.78
2022-11-03T12:13:35.400Z,100100.00
2022-11-03T12:16:36.698Z,100091.38
2022-11-03T12:19:43.817Z,100088.34
2022-11-03T12:22:29.332Z,100084.09
2022-11-03T12:25:34.930Z,100077.97
2022-11-03T12:28:34.113Z,100077.09
2022-11-03T12:31:19.049Z,100073.69
2022-11-03T12:34:04.128Z,100066.72
2022-11-03T12:36:54.740Z,100052.97
2022-11-03T12:39:40.942Z,100046.03
2022-11-03T12:42:25.991Z,100042.34
2022-11-03T12:45:13.415Z,100034.13
2022-11-03T12:47:58.434Z,100018.91
2022-11-03T12:50:43.147Z,100008.38
2022-11-03T12:53:27.998Z,99988.59
2022-11-03T12:56:14.621Z,99988.97
2022-11-03T12:58:59.532Z,99978.91
2022-11-03T13:01:44.579Z,99966.72
2022-11-03T13:04:29.794Z,99949.72
2022-11-03T13:07:14.725Z,99948.94
2022-11-03T13:09:59.479Z,99935.06
2022-11-03T13:12:45.163Z,99935.31
2022-11-03T13:15:30.556Z,99930.25
2022-11-03T13:18:15.312Z,99929.41
2022-11-03T13:21:00.250Z,99911.84
2022-11-03T13:23:46.096Z,99905.25
2022-11-03T13:26:30.899Z,99900.59
2022-11-03T13:29:15.690Z,99900.19
2022-11-03T13:32:00.673Z,99898.75
2022-11-03T13:34:45.731Z,99893.69
2022-11-03T13:37:30.807Z,99876.72
2022-11-03T13:40:35.730Z,99865.72
2022-11-03T13:43:21.415Z,99864.66
2022-11-03T13:46:06.600Z,99856.50
2022-11-03T13:51:56.593Z,99852.94
2022-11-03T14:00:51.331Z,99833.53
2022-11-03T14:06:41.087Z,99814.75
2022-11-03T14:09:26.130Z,99814.16
2022-11-03T14:12:29.949Z,99816.00
2022-11-03T14:15:15.072Z,99819.47
2022-11-03T14:18:00.084Z,99811.72
2022-11-03T14:20:45.194Z,99819.69
2022-11-03T14:23:29.941Z,99827.00
2022-11-03T14:26:23.603Z,99836.19
2022-11-03T14:29:19.822Z,99838.44
2022-11-03T14:32:05.168Z,99830.00
2022-11-03T14:34:49.937Z,99816.50
2022-11-03T14:37:34.826Z,99803.00
2022-11-03T14:40:38.312Z,99800.72
2022-11-03T14:43:23.482Z,99804.59
2022-11-03T14:46:08.358Z,99789.69
2022-11-03T14:48:54.359Z,99782.66
2022-11-03T14:51:39.467Z,99788.41
2022-11-03T14:54:24.810Z,99797.88
2022-11-03T14:57:09.769Z,99812.13
2022-11-03T14:59:54.560Z,99804.91
2022-11-03T15:02:39.466Z,99812.25
2022-11-03T15:05:43.091Z,99787.09
2022-11-03T15:08:29.585Z,99776.03
2022-11-03T15:11:14.564Z,99778.13
2022-11-03T15:13:59.518Z,99775.19
2022-11-03T15:16:45.902Z,99771.78
2022-11-03T15:19:30.722Z,99747.78
2022-11-03T15:22:15.884Z,99735.75
2022-11-03T15:25:18.739Z,99717.84
2022-11-03T15:28:06.432Z,99704.28
2022-11-03T15:30:51.656Z,99684.06
2022-11-03T15:33:36.410Z,99680.56
2022-11-03T15:36:22.165Z,99673.03
2022-11-03T15:39:07.154Z,99667.50
2022-11-03T15:41:52.413Z,99663.25
2022-11-03T15:44:37.118Z,99665.25
2022-11-03T15:47:21.907Z,99665.06
2022-11-03T15:50:07.822Z,99682.56
2022-11-03T15:52:53.790Z,99680.53
2022-11-03T15:55:38.694Z,99675.81
2022-11-03T15:58:23.523Z,99672.50
2022-11-03T16:01:08.565Z,99675.94
2022-11-03T16:03:53.298Z,99685.72
2022-11-03T16:07:07.419Z,99672.44
2022-11-03T16:09:43.561Z,99672.00
2022-11-03T16:12:30.057Z,99665.09
2022-11-03T16:15:14.952Z,99664.72
2022-11-03T16:18:02.920Z,99666.38
2022-11-03T16:20:48.122Z,99654.56
2022-11-03T16:23:33.301Z,99654.78
2022-11-03T16:26:21.724Z,99655.16
2022-11-03T16:29:06.922Z,99649.25
2022-11-03T16:31:51.809Z,99644.31
2022-11-03T16:34:36.686Z,99645.53
2022-11-03T16:37:21.606Z,99636.31
2022-11-03T16:40:06.969Z,99635.31
2022-11-03T16:42:51.789Z,99631.22
2022-11-03T16:45:38.104Z,99619.94
2022-11-03T16:48:23.470Z,99613.19
2022-11-03T16:51:08.371Z,99624.25
2022-11-03T16:53:54.598Z,99620.97
2022-11-03T16:56:39.791Z,99613.63
2022-11-03T16:59:26.272Z,99613.41
2022-11-03T17:02:16.109Z,99607.09
2022-11-03T17:05:01.820Z,99603.59
2022-11-03T17:07:52.832Z,99597.06
2022-11-03T17:10:38.736Z,99598.91
2022-11-03T17:13:23.501Z,99590.28
2022-11-03T17:16:08.387Z,99588.63
2022-11-03T17:18:53.158Z,99584.72
2022-11-03T17:21:38.144Z,99568.97
2022-11-03T17:24:22.871Z,99572.25
2022-11-03T17:27:27.437Z,99556.88
2022-11-03T17:30:18.537Z,99559.94
2022-11-03T17:33:09.530Z,99551.34
2022-11-03T17:35:54.566Z,99552.19
2022-11-03T17:38:39.444Z,99540.31
2022-11-03T17:41:24.551Z,99549.31
2022-11-03T17:44:11.673Z,99546.44
2022-11-03T17:46:56.588Z,99544.81
2022-11-03T17:49:42.210Z,99545.63
2022-11-03T17:52:30.240Z,99552.38
2022-11-03T17:55:29.121Z,99541.94
2022-11-03T17:58:13.945Z,99558.31
2022-11-03T18:01:01.578Z,99557.66
2022-11-03T18:03:46.275Z,99549.72
2022-11-03T18:06:31.104Z,99554.22
2022-11-03T18:09:16.142Z,99552.19
2022-11-03T18:12:20.026Z,99539.72
2022-11-03T18:15:14.161Z,99537.91
2022-11-03T18:17:59.642Z,99537.06
2022-11-03T18:20:53.493Z,99532.59
2022-11-03T18:23:38.841Z,99519.09
2022-11-03T18:26:26.286Z,99522.59
2022-11-03T18:29:11.142Z,99522.38
2022-11-03T18:31:56.978Z,99524.38
2022-11-03T18:34:41.952Z,99525.91
2022-11-03T18:37:27.254Z,99531.38
2022-11-03T18:40:13.366Z,99533.41
2022-11-03T18:42:58.554Z,99529.72
2022-11-03T18:45:43.462Z,99536.81
2022-11-03T18:48:28.373Z,99536.56
2022-11-03T18:51:13.401Z,99535.53
2022-11-03T18:53:58.713Z,99537.53
2022-11-03T18:56:44.088Z,99529.34
2022-11-03T18:59:32.274Z,99524.81
2022-11-03T19:02:22.453Z,99520.53
2022-11-03T19:05:12.498Z,99524.97
2022-11-03T19:07:58.645Z,99518.22
2022-11-03T19:10:43.730Z,99522.91
2022-11-03T19:13:34.770Z,99520.63
2022-11-03T19:16:25.932Z,99506.56
2022-11-03T19:19:12.404Z,99504.13
2022-11-03T19:21:57.561Z,99510.03
2022-11-03T19:24:43.429Z,99493.03
2022-11-03T19:27:31.924Z,99493.06
2022-11-03T19:30:19.242Z,99488.38
2022-11-03T19:33:04.763Z,99490.03
2022-11-03T19:35:50.258Z,99492.44
2022-11-03T19:38:35.819Z,99488.22
2022-11-03T19:41:53.277Z,99478.16
2022-11-03T19:44:38.179Z,99475.50
2022-11-03T19:47:28.255Z,99483.09
2022-11-03T19:50:24.798Z,99495.28
2022-11-03T19:53:14.205Z,99500.78
2022-11-03T19:55:59.627Z,99494.03
2022-11-03T19:58:44.790Z,99491.78
2022-11-03T20:01:29.748Z,99490.19
2022-11-03T20:04:14.606Z,99487.09
2022-11-03T20:06:59.997Z,99481.78
2022-11-03T20:09:44.966Z,99487.75
2022-11-03T20:12:30.869Z,99475.47
2022-11-03T20:15:19.949Z,99475.66
2022-11-03T20:18:06.304Z,99476.31
2022-11-03T20:20:51.453Z,99467.72
2022-11-03T20:23:39.081Z,99460.16
2022-11-03T20:26:28.077Z,99471.56
2022-11-03T20:29:14.345Z,99490.72
2022-11-03T20:31:59.354Z,99490.91
2022-11-03T20:34:46.402Z,99482.13
2022-11-03T20:37:31.560Z,99495.78
2022-11-03T20:40:20.087Z,99496.78
2022-11-03T20:43:05.783Z,99491.84
2022-11-03T20:45:50.597Z,99499.00
2022-11-03T20:48:35.504Z,99492.66
2022-11-03T20:51:22.577Z,99487.75
2022-11-03T20:54:15.198Z,99491.22
2022-11-03T20:57:00.189Z,99496.28
2022-11-03T20:59:45.053Z,99507.56
2022-11-03T21:02:30.006Z,99515.53
2022-11-03T21:05:15.741Z,99508.56
2022-11-03T21:08:00.588Z,99521.78
2022-11-03T21:10:45.556Z,99513.69
2022-11-03T21:13:30.467Z,99516.53
2022-11-03T21:16:33.961Z,99515.31
2022-11-03T21:19:40.423Z,99507.34
2022-11-03T21:25:40.342Z,99520.44
2022-11-03T21:28:25.515Z,99519.41
2022-11-03T21:31:13.101Z,99519.41
2022-11-03T21:33:58.043Z,99531.47
2022-11-03T21:36:42.906Z,99541.28
2022-11-03T21:39:29.393Z,99533.72
2022-11-03T21:42:34.021Z,99530.16
2022-11-03T21:45:20.215Z,99523.44
2022-11-03T21:48:24.025Z,99534.88
2022-11-03T21:51:09.304Z,99537.69
2022-11-03T21:53:53.973Z,99525.88
2022-11-03T21:56:38.792Z,99531.19
2022-11-03T21:59:23.803Z,99527.91
2022-11-03T22:02:11.805Z,99541.38
2022-11-03T22:04:57.026Z,99545.03
2022-11-03T22:07:41.883Z,99538.72
2022-11-03T22:10:26.776Z,99540.75
2022-11-03T22:13:12.091Z,99549.09
2022-11-03T22:16:15.724Z,99556.22
2022-11-03T22:19:19.812Z,99569.47
2022-11-03T22:22:24.711Z,99572.34
2022-11-03T22:25:28.645Z,99576.25
2022-11-03T22:28:15.096Z,99596.91
2022-11-03T22:31:23.076Z,99596.94
2022-11-03T22:34:27.066Z,99607.41
2022-11-03T22:37:12.161Z,99610.50
2022-11-03T22:40:15.879Z,99631.03
2022-11-03T22:43:19.565Z,99634.25
2022-11-03T22:46:05.442Z,99638.03
2022-11-03T22:48:50.442Z,99633.13
2022-11-03T22:51:35.322Z,99625.50
2022-11-03T22:54:20.039Z,99610.56
2022-11-03T22:57:05.011Z,99607.66
2022-11-03T22:59:49.718Z,99601.28
2022-11-03T23:02:34.662Z,99603.28
2022-11-03T23:05:19.482Z,99614.38
2022-11-03T23:08:04.305Z,99614.38
2022-11-03T23:10:49.397Z,99627.06
2022-11-03T23:13:34.345Z,99633.72
2022-11-03T23:16:23.001Z,99651.19
2022-11-03T23:19:33.976Z,99673.78
2022-11-03T23:22:19.099Z,99674.78
2022-11-03T23:25:04.560Z,99675.16
2022-11-03T23:27:49.701Z,99669.22
2022-11-03T23:30:34.702Z,99678.16
2022-11-03T23:33:19.492Z,99668.97
2022-11-03T23:36:06.578Z,99681.56
2022-11-03T23:38:51.658Z,99681.09
2022-11-03T23:41:36.677Z,99684.94
2022-11-03T23:44:21.577Z,99680.75
2022-11-03T23:47:26.927Z,99691.25
2022-11-03T23:50:11.952Z,99693.00
2022-11-03T23:52:56.722Z,99699.59
2022-11-03T23:56:01.556Z,99684.91
2022-11-03T23:58:50.768Z,99691.88
